Duluth International Airport
KDLH : rendu visible

Aérodrome :











RETROUVEZ-NOUS SUR...

 
LOGIN :

S'inscrire | Disclaimer

   EN    FR    IT 

 









Légende :    VFR   VFR Marginal   IFR   IFR Intensif   IFR Très Intensif
Visi : 
Plafond : 
>= 8 km
>= 3000ft
5 à 8 km
1000 à 3000 ft
1500m à 5 km
500 à 1000 ft
800 à 1500m
200 à 500 ft
< 800m
< 200 ft
Symboles :   Orages  Brouillard  Fortes neiges  Fortes précipitations  Vent > 20 kt






- Altitude de l'aérodrome : 1428 ft
- Code IATA : DLH


KDLH - Duluth International

DERNIER METAR :
  • 212155Z 20019G28KT 10SM FEW120 M07/M13 A2996 RMK AO2 PK WND 20028/2147 SLP179 T10721133

METARs EXPIRÉS :
  • 212055Z 20016G24KT 10SM FEW120 M07/M14 A2999 RMK AO2 PK WND 23032/2017 SLP188 P0000 60000 T10671139 58044
  • 212002Z 22014G25KT 6SM UP FEW002 M07/M14 A3003 RMK AO2 VIS 1/2 RWY 27 UPB1956 P0000 T10721139

TAF KDLH
Valide du 21 à 18h jusqu'au 22 à 18h UTC


211723Z 2118/2218 22013G23KT P6SM FEW120 WS020/23044KT
FM220000 21014G21KT P6SM BKN250 WS020/22049KT
FM221000 22010G18KT P6SM OVC018



MET'MAP, la Météo Aéronautique d'un coup d'oeil ! - Copyright ORBIFLY Décembre 2007 - Disclaimer

ORBIFLY MET'MAP TEAM :

Programmation & Développement : Alexandra Zaïnal
Sur une idée originale de : Baudouin d'Aumeries
Assistance à la programmation : Marc-Olivier Méhu
Soutien technique & logistique : Manuel Goepfert

Contact : metmap@orbifly.com




SOURCES & CREDITS :

   NOAA       Earth
Advisory